createdAt,value
2023-04-16T00:00:39.263Z,5.40
2023-04-16T00:02:44.530Z,5.47
2023-04-16T00:04:49.686Z,5.75
2023-04-16T00:06:54.582Z,5.45
2023-04-16T00:08:59.573Z,6.25
2023-04-16T00:11:06.836Z,5.50
2023-04-16T00:13:11.578Z,4.85
2023-04-16T00:15:19.307Z,4.68
2023-04-16T00:17:26.849Z,4.80
2023-04-16T00:19:32.293Z,5.38
2023-04-16T00:21:39.984Z,4.80
2023-04-16T00:23:44.864Z,5.18
2023-04-16T00:25:50.126Z,4.75
2023-04-16T00:27:55.123Z,4.50
2023-04-16T00:29:59.998Z,4.47
2023-04-16T00:32:04.917Z,4.45
2023-04-16T00:34:12.540Z,4.70
2023-04-16T00:36:20.502Z,5.07
2023-04-16T00:38:28.103Z,3.75
2023-04-16T00:40:33.270Z,4.60
2023-04-16T00:42:38.370Z,4.45
2023-04-16T00:44:51.432Z,4.85
2023-04-16T00:49:05.850Z,4.35
2023-04-16T00:51:20.991Z,3.72
2023-04-16T00:53:26.722Z,4.93
2023-04-16T00:55:36.917Z,3.80
2023-04-16T00:57:42.263Z,4.53
2023-04-16T00:59:50.669Z,4.05
2023-04-16T01:02:00.726Z,4.63
2023-04-16T01:04:10.544Z,4.85
2023-04-16T01:06:25.015Z,4.60
2023-04-16T01:08:32.308Z,4.88
2023-04-16T01:10:48.518Z,5.45
2023-04-16T01:12:58.877Z,4.22
2023-04-16T01:15:07.199Z,4.70
2023-04-16T01:17:12.605Z,4.40
2023-04-16T01:19:24.710Z,5.50
2023-04-16T01:21:35.240Z,5.20
2023-04-16T01:23:44.749Z,3.95
2023-04-16T01:25:55.079Z,4.35
2023-04-16T01:28:02.627Z,4.93
2023-04-16T01:30:20.488Z,4.20
2023-04-16T01:32:27.606Z,4.75
2023-04-16T01:34:44.726Z,4.93
2023-04-16T01:37:08.679Z,4.25
2023-04-16T01:39:20.626Z,4.07
2023-04-16T01:41:28.239Z,5.60
2023-04-16T01:43:38.978Z,3.83
2023-04-16T01:45:49.339Z,4.25
2023-04-16T01:47:57.323Z,5.15
2023-04-16T01:50:07.355Z,4.95
2023-04-16T01:52:15.707Z,4.55
2023-04-16T01:54:36.456Z,4.40
2023-04-16T01:56:49.844Z,5.78
2023-04-16T01:58:57.147Z,4.90
2023-04-16T02:01:08.460Z,4.85
2023-04-16T02:03:25.090Z,4.85
2023-04-16T02:05:32.967Z,4.53
2023-04-16T02:07:49.819Z,5.32
2023-04-16T02:09:59.886Z,4.82
2023-04-16T02:12:09.930Z,4.30
2023-04-16T02:14:22.912Z,4.50
2023-04-16T02:16:27.894Z,4.95
2023-04-16T02:18:32.936Z,4.75
2023-04-16T02:20:37.740Z,4.03
2023-04-16T02:22:48.495Z,5.40
2023-04-16T02:24:53.752Z,4.60
2023-04-16T02:26:58.950Z,4.47
2023-04-16T02:29:03.996Z,5.10
2023-04-16T02:31:08.880Z,4.72
2023-04-16T02:33:14.989Z,4.45
2023-04-16T02:35:19.831Z,4.68
2023-04-16T02:37:25.628Z,4.20
2023-04-16T02:39:33.142Z,4.60
2023-04-16T02:41:38.790Z,4.75
2023-04-16T02:43:43.635Z,5.05
2023-04-16T02:45:52.133Z,4.88
2023-04-16T02:47:57.210Z,4.88
2023-04-16T02:50:02.032Z,4.32
2023-04-16T02:52:07.102Z,4.18
2023-04-16T02:54:12.056Z,4.47
2023-04-16T02:56:22.136Z,4.47
2023-04-16T02:58:30.921Z,4.38
2023-04-16T03:00:35.959Z,3.90
2023-04-16T03:02:43.445Z,4.95
2023-04-16T03:04:48.869Z,4.28
2023-04-16T03:06:53.822Z,3.67
2023-04-16T03:08:58.689Z,5.22
2023-04-16T03:11:03.625Z,4.03
2023-04-16T03:13:11.164Z,4.40
2023-04-16T03:15:16.148Z,5.30
2023-04-16T03:17:23.792Z,4.35
2023-04-16T03:19:29.060Z,4.55
2023-04-16T03:21:34.253Z,5.25
2023-04-16T03:23:39.499Z,5.10
2023-04-16T03:25:46.929Z,4.63
2023-04-16T03:27:54.008Z,4.78
2023-04-16T03:30:01.505Z,4.80
2023-04-16T03:32:06.636Z,4.80
2023-04-16T03:34:11.838Z,4.57
2023-04-16T03:36:17.109Z,4.70
2023-04-16T03:38:26.951Z,4.72
2023-04-16T03:40:34.256Z,5.10
2023-04-16T03:42:44.330Z,4.70
2023-04-16T03:45:02.385Z,4.40
2023-04-16T03:47:12.994Z,4.95
2023-04-16T03:49:18.764Z,4.88
2023-04-16T03:51:24.133Z,4.55
2023-04-16T03:53:29.186Z,5.03
2023-04-16T03:55:35.669Z,4.65
2023-04-16T03:57:43.123Z,4.75
2023-04-16T03:59:48.238Z,4.78
2023-04-16T04:01:53.567Z,4.80
2023-04-16T04:04:02.258Z,4.47
2023-04-16T04:06:10.528Z,4.72
2023-04-16T04:08:21.302Z,5.20
2023-04-16T04:10:28.665Z,5.25
2023-04-16T04:12:35.180Z,4.63
2023-04-16T04:14:43.397Z,4.00
2023-04-16T04:16:50.946Z,6.28
2023-04-16T04:19:03.003Z,4.07
2023-04-16T04:21:14.230Z,4.88
2023-04-16T04:23:22.590Z,3.97
2023-04-16T04:25:30.870Z,4.93
2023-04-16T04:27:47.942Z,6.10
2023-04-16T04:32:13.556Z,4.95
2023-04-16T04:34:23.273Z,3.60
2023-04-16T04:36:31.189Z,3.50
2023-04-16T04:38:36.628Z,3.78
2023-04-16T04:40:42.364Z,3.55
2023-04-16T04:42:55.379Z,4.00
2023-04-16T04:45:02.673Z,3.95
2023-04-16T04:47:07.796Z,4.25
2023-04-16T04:49:13.134Z,3.58
2023-04-16T04:51:19.035Z,4.47
2023-04-16T04:53:26.889Z,4.25
2023-04-16T04:55:34.237Z,4.38
2023-04-16T04:57:42.594Z,4.20
2023-04-16T04:59:55.225Z,4.05
2023-04-16T05:02:06.524Z,4.35
2023-04-16T05:04:12.060Z,4.10
2023-04-16T05:06:17.359Z,4.65
2023-04-16T05:08:29.956Z,3.53
2023-04-16T05:10:37.859Z,4.82
2023-04-16T05:12:51.098Z,3.80
2023-04-16T05:14:56.438Z,4.38
2023-04-16T05:19:41.282Z,4.90
2023-04-16T05:21:46.186Z,4.85
2023-04-16T05:23:59.865Z,4.60
2023-04-16T05:26:04.904Z,4.50
2023-04-16T05:28:10.056Z,4.32
2023-04-16T05:30:21.242Z,4.38
2023-04-16T05:32:28.879Z,5.00
2023-04-16T05:34:34.384Z,5.75
2023-04-16T05:36:53.615Z,5.40
2023-04-16T05:39:02.208Z,4.80
2023-04-16T05:41:08.127Z,5.20
2023-04-16T05:43:14.017Z,5.07
2023-04-16T05:45:20.188Z,4.88
2023-04-16T05:47:29.465Z,5.78
2023-04-16T05:49:35.168Z,4.80
2023-04-16T05:51:45.635Z,5.22
2023-04-16T05:53:52.912Z,5.20
2023-04-16T05:56:05.090Z,5.18
2023-04-16T05:58:13.600Z,5.97
2023-04-16T06:00:22.393Z,6.15
2023-04-16T06:02:33.857Z,5.88
2023-04-16T06:04:39.000Z,5.43
2023-04-16T06:06:43.853Z,5.30
2023-04-16T06:08:49.244Z,6.30
2023-04-16T06:10:54.273Z,5.45
2023-04-16T06:13:01.893Z,5.75
2023-04-16T06:15:07.765Z,6.18
2023-04-16T06:17:12.601Z,5.15
2023-04-16T06:19:19.368Z,6.20
2023-04-16T06:21:26.990Z,6.78
2023-04-16T06:23:31.962Z,6.35
2023-04-16T06:25:36.824Z,6.20
2023-04-16T06:27:41.861Z,4.75
2023-04-16T06:29:51.576Z,5.63
2023-04-16T06:31:56.605Z,5.72
2023-04-16T06:34:01.712Z,6.15
2023-04-16T06:36:07.091Z,6.28
2023-04-16T06:38:12.084Z,6.50
2023-04-16T06:40:19.026Z,6.32
2023-04-16T06:42:23.959Z,8.50
2023-04-16T06:44:29.062Z,6.45
2023-04-16T06:46:39.125Z,8.68
2023-04-16T06:48:44.011Z,7.25
2023-04-16T06:50:49.247Z,6.72
2023-04-16T06:52:54.213Z,8.73
2023-04-16T06:54:59.884Z,7.25
2023-04-16T06:57:04.953Z,9.90
2023-04-16T06:59:16.353Z,8.45
2023-04-16T07:01:24.569Z,8.18
2023-04-16T07:03:34.240Z,8.98
2023-04-16T07:05:47.146Z,9.68
2023-04-16T07:08:02.501Z,9.02
2023-04-16T07:10:12.930Z,8.77
2023-04-16T07:12:22.016Z,9.05
2023-04-16T07:14:31.094Z,8.07
2023-04-16T07:16:38.512Z,8.43
2023-04-16T07:19:10.790Z,7.95
2023-04-16T07:21:23.773Z,8.02
2023-04-16T07:23:32.798Z,6.85
2023-04-16T07:25:48.793Z,7.72
2023-04-16T07:28:02.842Z,8.40
2023-04-16T07:30:12.880Z,8.10
2023-04-16T07:32:24.906Z,9.07
2023-04-16T07:34:39.850Z,7.10
2023-04-16T07:36:51.440Z,7.45
2023-04-16T07:38:56.727Z,8.52
2023-04-16T07:41:07.504Z,9.13
2023-04-16T07:43:13.756Z,8.23
2023-04-16T07:45:26.561Z,9.70
2023-04-16T07:47:32.733Z,7.50
2023-04-16T07:49:41.373Z,7.25
2023-04-16T07:51:50.372Z,8.48
2023-04-16T07:54:00.163Z,7.93
2023-04-16T07:56:10.772Z,8.55
2023-04-16T07:58:18.650Z,7.70
2023-04-16T08:00:26.552Z,8.18
2023-04-16T08:02:48.182Z,7.68
2023-04-16T08:05:03.132Z,7.40
2023-04-16T08:07:34.462Z,9.13
2023-04-16T08:10:01.559Z,7.22
2023-04-16T08:12:12.527Z,9.68
2023-04-16T08:14:18.579Z,7.70
2023-04-16T08:16:23.632Z,8.13
2023-04-16T08:18:31.009Z,7.57
2023-04-16T08:20:39.148Z,8.48
2023-04-16T08:22:46.076Z,7.43
2023-04-16T08:24:53.146Z,8.00
2023-04-16T08:27:08.118Z,9.02
2023-04-16T08:29:28.163Z,8.00
2023-04-16T08:31:33.114Z,7.80
2023-04-16T08:33:38.328Z,8.07
2023-04-16T08:35:45.951Z,8.25
2023-04-16T08:37:54.017Z,7.35
2023-04-16T08:39:59.163Z,7.53
2023-04-16T08:42:07.724Z,6.75
2023-04-16T08:44:19.584Z,7.35
2023-04-16T08:46:27.827Z,8.32
2023-04-16T08:48:36.869Z,8.50
2023-04-16T08:50:43.844Z,8.10
2023-04-16T08:52:54.486Z,9.30
2023-04-16T08:55:06.792Z,6.82
2023-04-16T08:57:14.485Z,7.40
2023-04-16T08:59:20.076Z,7.15
2023-04-16T09:01:28.157Z,7.88
2023-04-16T09:03:36.720Z,9.25
2023-04-16T09:05:42.844Z,8.60
2023-04-16T09:07:50.506Z,8.50
2023-04-16T09:09:58.656Z,7.10
2023-04-16T09:12:04.210Z,8.23
2023-04-16T09:14:12.946Z,8.50
2023-04-16T09:16:19.658Z,7.05
2023-04-16T09:18:24.732Z,6.70
2023-04-16T09:20:29.667Z,8.07
2023-04-16T09:22:35.109Z,7.10
2023-04-16T09:24:42.128Z,7.30
2023-04-16T09:26:50.304Z,6.55
2023-04-16T09:28:55.339Z,7.00
2023-04-16T09:31:11.827Z,7.45
2023-04-16T09:33:22.801Z,6.63
2023-04-16T09:35:30.457Z,7.05
2023-04-16T09:37:35.630Z,7.78
2023-04-16T09:39:40.798Z,7.65
2023-04-16T09:41:48.265Z,8.23
2023-04-16T09:43:59.542Z,7.50
2023-04-16T09:46:08.406Z,7.40
2023-04-16T09:48:13.587Z,7.85
2023-04-16T09:54:05.162Z,7.88
2023-04-16T09:57:26.093Z,7.18
2023-04-16T10:00:05.939Z,7.07
2023-04-16T10:03:38.119Z,7.35
2023-04-16T10:12:43.597Z,7.97
2023-04-16T10:15:29.659Z,8.13
2023-04-16T10:17:43.924Z,7.95
2023-04-16T10:22:40.679Z,8.05
2023-04-16T10:25:02.480Z,8.68
2023-04-16T10:30:32.800Z,8.38
2023-04-16T10:36:50.589Z,8.20
2023-04-16T10:39:27.996Z,8.57
2023-04-16T10:45:10.848Z,9.32
2023-04-16T10:47:38.293Z,7.70
2023-04-16T10:50:10.925Z,8.07
2023-04-16T10:58:04.394Z,7.88
2023-04-16T11:00:59.575Z,8.95
2023-04-16T11:03:53.263Z,9.20
2023-04-16T11:06:43.312Z,8.95
2023-04-16T11:12:55.880Z,8.48
2023-04-16T11:15:45.466Z,7.68
2023-04-16T11:21:21.752Z,7.70
2023-04-16T11:24:05.059Z,8.63
2023-04-16T11:26:23.683Z,8.65
2023-04-16T11:28:40.225Z,8.00
2023-04-16T11:30:46.723Z,6.93
2023-04-16T11:32:54.798Z,8.10
2023-04-16T11:35:37.977Z,7.57
2023-04-16T11:37:42.957Z,7.20
2023-04-16T11:39:55.083Z,6.85
2023-04-16T11:42:03.203Z,8.30
2023-04-16T11:45:12.197Z,6.95
2023-04-16T11:47:30.656Z,7.80
2023-04-16T11:49:54.727Z,6.88
2023-04-16T11:54:46.996Z,7.13
2023-04-16T11:56:53.740Z,7.78
2023-04-16T11:59:15.696Z,6.78
2023-04-16T12:01:23.865Z,7.32
2023-04-16T12:03:44.335Z,8.40
2023-04-16T12:05:49.543Z,8.18
2023-04-16T12:07:54.663Z,8.50
2023-04-16T12:10:09.219Z,10.38
2023-04-16T12:12:31.623Z,7.78
2023-04-16T12:14:39.632Z,8.20
2023-04-16T12:16:44.639Z,7.38
2023-04-16T12:19:38.704Z,8.88
2023-04-16T12:23:21.573Z,8.55
2023-04-16T12:25:55.693Z,8.90
2023-04-16T12:37:37.450Z,8.68
2023-04-16T12:40:29.031Z,9.20
2023-04-16T12:45:55.913Z,10.43
2023-04-16T12:48:48.711Z,9.70
2023-04-16T12:51:54.310Z,9.75
2023-04-16T12:54:03.663Z,9.30
2023-04-16T12:56:08.666Z,9.30
2023-04-16T12:58:13.995Z,8.32
2023-04-16T13:03:57.366Z,9.80
2023-04-16T13:06:59.737Z,9.98
2023-04-16T13:09:27.784Z,9.35
2023-04-16T13:11:33.315Z,10.98
2023-04-16T13:13:38.239Z,9.77
2023-04-16T13:15:44.723Z,8.88
2023-04-16T13:17:49.711Z,9.75
2023-04-16T13:19:54.657Z,10.27
2023-04-16T13:22:00.274Z,10.73
2023-04-16T13:24:11.141Z,10.40
2023-04-16T13:26:20.265Z,10.02
2023-04-16T13:28:25.208Z,9.25
2023-04-16T13:30:31.946Z,10.00
2023-04-16T13:32:41.090Z,10.70
2023-04-16T13:34:46.255Z,10.23
2023-04-16T13:36:54.122Z,10.20
2023-04-16T13:38:59.308Z,10.00
2023-04-16T13:41:04.138Z,11.68
2023-04-16T13:43:11.732Z,9.65
2023-04-16T13:45:16.905Z,11.02
2023-04-16T13:47:24.310Z,10.63
2023-04-16T13:49:29.338Z,10.27
2023-04-16T13:51:34.235Z,10.98
2023-04-16T13:53:39.174Z,9.93
2023-04-16T13:55:44.118Z,9.93
2023-04-16T13:57:50.183Z,10.15
2023-04-16T13:59:58.476Z,11.10
2023-04-16T14:02:05.292Z,9.77
2023-04-16T14:04:10.527Z,9.55
2023-04-16T14:06:21.036Z,10.25
2023-04-16T14:08:26.032Z,9.68
2023-04-16T14:10:30.966Z,10.40
2023-04-16T14:12:36.782Z,9.25
2023-04-16T14:14:42.093Z,9.13
2023-04-16T14:16:49.772Z,10.13
2023-04-16T14:18:54.787Z,10.15
2023-04-16T14:21:02.302Z,10.88
2023-04-16T14:23:07.618Z,10.63
2023-04-16T14:25:12.773Z,10.10
2023-04-16T14:27:20.024Z,11.13
2023-04-16T14:29:24.993Z,10.85
2023-04-16T14:31:29.863Z,10.30
2023-04-16T14:33:37.787Z,9.82
2023-04-16T14:35:43.162Z,11.57
2023-04-16T14:37:48.461Z,10.90
2023-04-16T14:39:54.244Z,10.77
2023-04-16T14:46:46.933Z,10.75
2023-04-16T14:56:21.414Z,10.65
2023-04-16T14:59:27.786Z,10.77
2023-04-16T15:02:35.144Z,11.38
2023-04-16T15:05:21.996Z,10.10
2023-04-16T15:07:26.912Z,10.52
2023-04-16T15:09:32.879Z,10.93
2023-04-16T15:11:41.964Z,11.90
2023-04-16T15:13:49.144Z,11.10
2023-04-16T15:15:54.141Z,10.77
2023-04-16T15:18:00.538Z,11.38
2023-04-16T15:20:06.820Z,11.38
2023-04-16T15:22:11.633Z,9.60
2023-04-16T15:24:16.394Z,9.77
2023-04-16T15:26:26.425Z,9.52
2023-04-16T15:28:35.767Z,10.52
2023-04-16T15:30:48.682Z,11.27
2023-04-16T15:32:55.188Z,10.00
2023-04-16T15:35:00.235Z,10.90
2023-04-16T15:37:05.694Z,9.35
2023-04-16T15:39:11.295Z,9.85
2023-04-16T15:41:16.609Z,10.38
2023-04-16T15:43:24.650Z,9.27
2023-04-16T15:45:32.752Z,10.02
2023-04-16T15:47:41.633Z,9.40
2023-04-16T15:49:49.911Z,9.63
2023-04-16T15:51:55.734Z,11.50
2023-04-16T15:54:01.119Z,9.93
2023-04-16T15:56:06.972Z,9.93
2023-04-16T15:59:13.915Z,10.23
2023-04-16T16:01:59.601Z,10.68
2023-04-16T16:11:26.644Z,10.05
2023-04-16T16:14:54.211Z,10.40
2023-04-16T16:21:06.128Z,10.88
2023-04-16T17:02:40.432Z,12.07
2023-04-16T17:05:58.065Z,12.77
2023-04-16T17:14:51.704Z,13.38
2023-04-16T17:17:43.687Z,12.50
2023-04-16T17:29:58.562Z,14.75
2023-04-16T17:32:03.705Z,15.90
2023-04-16T17:34:11.923Z,15.18
2023-04-16T17:36:19.888Z,14.48
2023-04-16T17:38:24.952Z,15.07
2023-04-16T17:40:30.184Z,15.50
2023-04-16T17:42:37.441Z,14.23
2023-04-16T17:44:42.475Z,14.75
2023-04-16T17:46:47.414Z,14.27
2023-04-16T17:48:55.322Z,15.25
2023-04-16T17:51:03.022Z,15.32
2023-04-16T17:53:08.036Z,15.20
2023-04-16T17:55:14.603Z,16.25
2023-04-16T17:57:19.600Z,14.95
2023-04-16T17:59:25.084Z,17.35
2023-04-16T18:01:30.238Z,13.93
2023-04-16T18:03:38.463Z,17.33
2023-04-16T18:05:43.970Z,13.95
2023-04-16T18:07:53.504Z,13.63
2023-04-16T18:09:58.529Z,14.82
2023-04-16T18:12:11.049Z,14.88
2023-04-16T18:14:21.586Z,17.05
2023-04-16T18:16:26.463Z,16.17
2023-04-16T18:18:34.555Z,15.38
2023-04-16T18:20:40.117Z,16.58
2023-04-16T18:22:45.126Z,16.05
2023-04-16T18:24:52.861Z,16.60
2023-04-16T18:26:57.687Z,15.35
2023-04-16T18:29:03.097Z,16.50
2023-04-16T18:31:08.263Z,17.17
2023-04-16T18:35:24.900Z,16.98
2023-04-16T18:37:29.946Z,15.85
2023-04-16T18:39:39.075Z,17.63
2023-04-16T18:41:48.559Z,14.80
2023-04-16T18:43:56.754Z,16.10
2023-04-16T18:46:01.746Z,16.13
2023-04-16T18:48:08.356Z,17.67
2023-04-16T18:50:13.483Z,15.70
2023-04-16T18:52:24.847Z,16.88
2023-04-16T18:54:30.416Z,16.58
2023-04-16T18:56:36.450Z,16.80
2023-04-16T18:58:51.182Z,16.30
2023-04-16T19:00:58.675Z,15.90
2023-04-16T19:03:07.314Z,14.68
2023-04-16T19:05:13.386Z,16.13
2023-04-16T19:07:20.524Z,16.17
2023-04-16T19:09:26.671Z,16.88
2023-04-16T19:11:31.949Z,15.15
2023-04-16T19:13:38.327Z,15.68
2023-04-16T19:15:45.884Z,14.98
2023-04-16T19:17:52.688Z,16.65
2023-04-16T19:19:57.745Z,14.90
2023-04-16T19:22:08.176Z,14.63
2023-04-16T19:24:15.757Z,15.20
2023-04-16T19:26:24.837Z,15.90
2023-04-16T19:28:31.511Z,15.13
2023-04-16T19:30:36.720Z,15.93
2023-04-16T19:32:44.728Z,16.60
2023-04-16T19:34:53.327Z,15.85
2023-04-16T19:37:04.678Z,15.68
2023-04-16T19:39:11.540Z,16.92
2023-04-16T19:41:18.265Z,17.05
2023-04-16T19:43:27.622Z,16.02
2023-04-16T19:45:41.162Z,16.05
2023-04-16T19:47:51.469Z,17.63
2023-04-16T19:49:58.202Z,16.50
2023-04-16T19:52:04.524Z,18.77
2023-04-16T19:54:15.789Z,16.02
2023-04-16T19:56:29.169Z,14.25
2023-04-16T19:58:42.597Z,16.13
2023-04-16T20:00:52.578Z,16.70
2023-04-16T20:03:00.564Z,16.00
2023-04-16T20:05:06.190Z,15.13
2023-04-16T20:07:11.339Z,15.23
2023-04-16T20:09:18.715Z,15.50
2023-04-16T20:11:27.278Z,14.93
2023-04-16T20:13:33.048Z,15.98
2023-04-16T20:15:38.674Z,14.85
2023-04-16T20:17:43.815Z,15.40
2023-04-16T20:19:51.459Z,16.60
2023-04-16T20:21:56.964Z,15.90
2023-04-16T20:24:03.049Z,17.77
2023-04-16T20:26:11.251Z,17.60
2023-04-16T20:28:21.295Z,16.45
2023-04-16T20:30:29.554Z,15.82
2023-04-16T20:32:34.621Z,16.55
2023-04-16T20:34:43.115Z,17.58
2023-04-16T20:36:55.215Z,16.50
2023-04-16T20:39:02.343Z,16.52
2023-04-16T20:41:10.431Z,17.02
2023-04-16T20:43:19.414Z,18.67
2023-04-16T20:45:24.646Z,18.50
2023-04-16T20:47:30.718Z,18.65
2023-04-16T20:49:35.850Z,19.10
2023-04-16T20:51:42.046Z,17.58
2023-04-16T20:53:52.331Z,20.13
2023-04-16T20:55:57.626Z,17.95
2023-04-16T20:58:02.635Z,18.50
2023-04-16T21:00:10.329Z,17.75
2023-04-16T21:02:21.245Z,19.77
2023-04-16T21:04:26.597Z,19.25
2023-04-16T21:06:33.034Z,19.80
2023-04-16T21:08:41.818Z,21.25
2023-04-16T21:10:51.660Z,20.40
2023-04-16T21:12:57.084Z,19.55
2023-04-16T21:15:09.661Z,20.50
2023-04-16T21:17:20.352Z,22.27
2023-04-16T21:19:38.002Z,22.13
2023-04-16T21:22:02.858Z,22.83
2023-04-16T21:24:09.192Z,26.00
2023-04-16T21:26:33.568Z,26.63
2023-04-16T21:28:56.180Z,25.58
2023-04-16T21:31:15.300Z,27.27
2023-04-16T21:33:26.404Z,30.58
2023-04-16T21:35:34.588Z,27.73
2023-04-16T21:37:49.558Z,26.90
2023-04-16T21:39:54.697Z,28.00
2023-04-16T21:42:02.439Z,26.50
2023-04-16T21:44:07.999Z,28.58
2023-04-16T21:46:12.945Z,28.85
2023-04-16T21:48:19.843Z,29.55
2023-04-16T21:50:31.008Z,27.40
2023-04-16T21:52:41.373Z,25.63
2023-04-16T21:54:54.289Z,25.15
2023-04-16T21:57:11.560Z,26.25
2023-04-16T21:59:19.875Z,25.85
2023-04-16T22:01:34.172Z,27.73
2023-04-16T22:03:43.241Z,27.25
2023-04-16T22:05:54.762Z,27.23
2023-04-16T22:08:08.196Z,27.23
2023-04-16T22:10:42.289Z,27.75
2023-04-16T22:13:02.782Z,27.40
2023-04-16T22:15:14.627Z,29.05
2023-04-16T22:17:27.916Z,27.20
2023-04-16T22:19:35.212Z,28.42
2023-04-16T22:21:41.535Z,24.88
2023-04-16T22:23:50.978Z,26.77
2023-04-16T22:25:58.571Z,24.48
2023-04-16T22:28:06.638Z,26.95
2023-04-16T22:30:13.444Z,23.75
2023-04-16T22:32:21.393Z,22.88
2023-04-16T22:34:26.369Z,22.27
2023-04-16T22:36:33.312Z,21.33
2023-04-16T22:38:39.122Z,22.00
2023-04-16T22:40:44.039Z,21.40
2023-04-16T22:42:50.501Z,21.25
2023-04-16T22:44:58.007Z,20.35
2023-04-16T22:47:02.845Z,20.67
2023-04-16T22:49:08.098Z,19.67
2023-04-16T22:51:12.961Z,21.13
2023-04-16T22:53:22.204Z,20.52
2023-04-16T22:55:39.462Z,21.98
2023-04-16T22:57:44.657Z,19.70
2023-04-16T22:59:56.076Z,20.95
2023-04-16T23:02:11.760Z,21.77
2023-04-16T23:04:31.192Z,24.00
2023-04-16T23:06:51.417Z,20.77
2023-04-16T23:09:03.304Z,20.60
2023-04-16T23:11:16.347Z,19.15
2023-04-16T23:13:42.985Z,22.08
2023-04-16T23:15:58.372Z,21.80
2023-04-16T23:18:23.444Z,20.00
2023-04-16T23:20:29.801Z,19.30
2023-04-16T23:22:41.268Z,20.42
2023-04-16T23:24:58.621Z,19.85
2023-04-16T23:27:12.428Z,20.98
2023-04-16T23:29:27.410Z,21.30
2023-04-16T23:31:45.528Z,22.15
2023-04-16T23:34:00.722Z,19.77
2023-04-16T23:36:11.114Z,20.48
2023-04-16T23:38:16.057Z,21.10
2023-04-16T23:40:22.544Z,27.17
2023-04-16T23:42:27.509Z,35.55
2023-04-16T23:44:32.501Z,38.95
2023-04-16T23:46:39.640Z,31.92
2023-04-16T23:48:44.846Z,28.02
2023-04-16T23:50:52.822Z,26.08
2023-04-16T23:53:00.840Z,21.75
2023-04-16T23:55:06.073Z,22.02
2023-04-16T23:57:11.814Z,20.25
2023-04-16T23:59:21.177Z,20.33
